sensor_id;sensor_type;location;lat;lon;timestamp;P1;durP1;ratioP1;P2;durP2;ratioP2
22359;SDS011;11347;52.030;4.690;2022-08-23T00:01:29;4.90;;;2.00;;
22359;SDS011;11347;52.030;4.690;2022-08-23T00:03:58;5.77;;;2.10;;
22359;SDS011;11347;52.030;4.690;2022-08-23T00:06:27;6.93;;;2.30;;
22359;SDS011;11347;52.030;4.690;2022-08-23T00:08:53;4.33;;;2.00;;
22359;SDS011;11347;52.030;4.690;2022-08-23T00:11:39;6.13;;;2.27;;
22359;SDS011;11347;52.030;4.690;2022-08-23T00:14:19;6.03;;;2.03;;
22359;SDS011;11347;52.030;4.690;2022-08-23T00:16:53;5.80;;;2.37;;
22359;SDS011;11347;52.030;4.690;2022-08-23T00:19:20;3.70;;;1.97;;
22359;SDS011;11347;52.030;4.690;2022-08-23T00:21:48;4.93;;;1.97;;
22359;SDS011;11347;52.030;4.690;2022-08-23T00:24:15;4.90;;;1.90;;
22359;SDS011;11347;52.030;4.690;2022-08-23T00:29:27;6.30;;;2.03;;
22359;SDS011;11347;52.030;4.690;2022-08-23T00:31:54;4.43;;;1.73;;
22359;SDS011;11347;52.030;4.690;2022-08-23T00:34:20;7.77;;;2.13;;
22359;SDS011;11347;52.030;4.690;2022-08-23T00:36:46;3.93;;;2.00;;
22359;SDS011;11347;52.030;4.690;2022-08-23T00:39:13;3.47;;;1.93;;
22359;SDS011;11347;52.030;4.690;2022-08-23T00:41:39;8.80;;;2.20;;
22359;SDS011;11347;52.030;4.690;2022-08-23T00:44:05;3.10;;;1.50;;
22359;SDS011;11347;52.030;4.690;2022-08-23T00:47:03;4.50;;;1.87;;
22359;SDS011;11347;52.030;4.690;2022-08-23T00:49:49;4.00;;;2.03;;
22359;SDS011;11347;52.030;4.690;2022-08-23T00:52:48;5.47;;;1.87;;
22359;SDS011;11347;52.030;4.690;2022-08-23T00:55:15;5.00;;;2.30;;
22359;SDS011;11347;52.030;4.690;2022-08-23T00:57:41;4.67;;;2.20;;
22359;SDS011;11347;52.030;4.690;2022-08-23T01:00:07;5.13;;;1.80;;
22359;SDS011;11347;52.030;4.690;2022-08-23T01:02:35;4.33;;;1.97;;
22359;SDS011;11347;52.030;4.690;2022-08-23T01:05:04;4.37;;;2.00;;
22359;SDS011;11347;52.030;4.690;2022-08-23T01:07:48;4.07;;;1.87;;
22359;SDS011;11347;52.030;4.690;2022-08-23T01:10:22;4.13;;;1.80;;
22359;SDS011;11347;52.030;4.690;2022-08-23T01:12:57;3.97;;;1.70;;
22359;SDS011;11347;52.030;4.690;2022-08-23T01:15:33;6.17;;;2.30;;
22359;SDS011;11347;52.030;4.690;2022-08-23T01:18:05;7.50;;;2.30;;
22359;SDS011;11347;52.030;4.690;2022-08-23T01:20:44;2.93;;;1.80;;
22359;SDS011;11347;52.030;4.690;2022-08-23T01:23:34;2.83;;;1.70;;
22359;SDS011;11347;52.030;4.690;2022-08-23T01:26:07;2.77;;;1.70;;
22359;SDS011;11347;52.030;4.690;2022-08-23T01:28:34;3.90;;;2.07;;
22359;SDS011;11347;52.030;4.690;2022-08-23T01:30:59;4.40;;;2.03;;
22359;SDS011;11347;52.030;4.690;2022-08-23T01:33:26;6.27;;;1.90;;
22359;SDS011;11347;52.030;4.690;2022-08-23T01:35:53;4.10;;;2.00;;
22359;SDS011;11347;52.030;4.690;2022-08-23T01:38:21;3.43;;;2.07;;
22359;SDS011;11347;52.030;4.690;2022-08-23T01:40:47;6.93;;;2.40;;
22359;SDS011;11347;52.030;4.690;2022-08-23T01:43:14;6.33;;;2.53;;
22359;SDS011;11347;52.030;4.690;2022-08-23T01:45:43;5.90;;;2.30;;
22359;SDS011;11347;52.030;4.690;2022-08-23T01:48:09;4.10;;;2.20;;
22359;SDS011;11347;52.030;4.690;2022-08-23T01:50:35;7.23;;;2.13;;
22359;SDS011;11347;52.030;4.690;2022-08-23T01:53:01;5.77;;;1.90;;
22359;SDS011;11347;52.030;4.690;2022-08-23T01:55:27;5.00;;;2.10;;
22359;SDS011;11347;52.030;4.690;2022-08-23T01:57:53;5.47;;;2.17;;
22359;SDS011;11347;52.030;4.690;2022-08-23T02:00:22;5.03;;;1.80;;
22359;SDS011;11347;52.030;4.690;2022-08-23T02:02:51;5.57;;;2.17;;
22359;SDS011;11347;52.030;4.690;2022-08-23T02:05:17;3.33;;;1.70;;
22359;SDS011;11347;52.030;4.690;2022-08-23T02:07:43;4.47;;;2.00;;
22359;SDS011;11347;52.030;4.690;2022-08-23T02:10:09;6.83;;;2.27;;
22359;SDS011;11347;52.030;4.690;2022-08-23T02:12:35;5.13;;;2.17;;
22359;SDS011;11347;52.030;4.690;2022-08-23T02:15:01;4.50;;;2.10;;
22359;SDS011;11347;52.030;4.690;2022-08-23T02:17:27;2.40;;;1.73;;
22359;SDS011;11347;52.030;4.690;2022-08-23T02:19:53;6.33;;;2.20;;
22359;SDS011;11347;52.030;4.690;2022-08-23T02:22:19;5.07;;;2.00;;
22359;SDS011;11347;52.030;4.690;2022-08-23T02:24:45;4.30;;;1.90;;
22359;SDS011;11347;52.030;4.690;2022-08-23T02:27:12;3.57;;;1.90;;
22359;SDS011;11347;52.030;4.690;2022-08-23T02:29:39;3.67;;;1.80;;
22359;SDS011;11347;52.030;4.690;2022-08-23T02:32:06;3.57;;;1.83;;
22359;SDS011;11347;52.030;4.690;2022-08-23T02:34:32;5.47;;;2.07;;
22359;SDS011;11347;52.030;4.690;2022-08-23T02:36:58;5.13;;;2.20;;
22359;SDS011;11347;52.030;4.690;2022-08-23T02:39:24;3.30;;;2.10;;
22359;SDS011;11347;52.030;4.690;2022-08-23T02:41:49;4.93;;;2.10;;
22359;SDS011;11347;52.030;4.690;2022-08-23T02:44:15;5.50;;;2.37;;
22359;SDS011;11347;52.030;4.690;2022-08-23T02:46:43;5.93;;;2.40;;
22359;SDS011;11347;52.030;4.690;2022-08-23T02:49:09;4.13;;;2.10;;
22359;SDS011;11347;52.030;4.690;2022-08-23T02:51:36;6.77;;;2.20;;
22359;SDS011;11347;52.030;4.690;2022-08-23T02:54:02;4.13;;;2.10;;
22359;SDS011;11347;52.030;4.690;2022-08-23T02:56:29;3.70;;;1.90;;
22359;SDS011;11347;52.030;4.690;2022-08-23T02:58:55;4.00;;;2.20;;
22359;SDS011;11347;52.030;4.690;2022-08-23T03:01:25;5.17;;;2.07;;
22359;SDS011;11347;52.030;4.690;2022-08-23T03:03:56;3.83;;;1.80;;
22359;SDS011;11347;52.030;4.690;2022-08-23T03:06:24;4.23;;;1.90;;
22359;SDS011;11347;52.030;4.690;2022-08-23T03:08:50;4.30;;;2.30;;
22359;SDS011;11347;52.030;4.690;2022-08-23T03:11:17;3.60;;;1.83;;
22359;SDS011;11347;52.030;4.690;2022-08-23T03:13:45;5.10;;;2.30;;
22359;SDS011;11347;52.030;4.690;2022-08-23T03:16:12;4.17;;;2.17;;
22359;SDS011;11347;52.030;4.690;2022-08-23T03:18:38;4.30;;;2.07;;
22359;SDS011;11347;52.030;4.690;2022-08-23T03:21:05;7.30;;;2.40;;
22359;SDS011;11347;52.030;4.690;2022-08-23T03:23:32;4.90;;;2.07;;
22359;SDS011;11347;52.030;4.690;2022-08-23T03:25:59;5.77;;;2.33;;
22359;SDS011;11347;52.030;4.690;2022-08-23T03:28:26;6.03;;;2.50;;
22359;SDS011;11347;52.030;4.690;2022-08-23T03:30:53;6.60;;;2.30;;
22359;SDS011;11347;52.030;4.690;2022-08-23T03:33:19;8.03;;;2.50;;
22359;SDS011;11347;52.030;4.690;2022-08-23T03:35:45;3.83;;;2.43;;
22359;SDS011;11347;52.030;4.690;2022-08-23T03:38:10;3.87;;;1.90;;
22359;SDS011;11347;52.030;4.690;2022-08-23T03:40:37;4.10;;;1.90;;
22359;SDS011;11347;52.030;4.690;2022-08-23T03:43:03;4.93;;;1.83;;
22359;SDS011;11347;52.030;4.690;2022-08-23T03:45:29;3.90;;;1.87;;
22359;SDS011;11347;52.030;4.690;2022-08-23T03:47:55;3.83;;;2.17;;
22359;SDS011;11347;52.030;4.690;2022-08-23T03:50:20;3.17;;;1.90;;
22359;SDS011;11347;52.030;4.690;2022-08-23T03:52:46;5.57;;;2.00;;
22359;SDS011;11347;52.030;4.690;2022-08-23T03:55:12;3.47;;;1.90;;
22359;SDS011;11347;52.030;4.690;2022-08-23T03:57:38;4.27;;;2.30;;
22359;SDS011;11347;52.030;4.690;2022-08-23T04:00:05;5.90;;;2.53;;
22359;SDS011;11347;52.030;4.690;2022-08-23T04:02:32;5.33;;;2.10;;
22359;SDS011;11347;52.030;4.690;2022-08-23T04:04:57;4.13;;;2.00;;
22359;SDS011;11347;52.030;4.690;2022-08-23T04:07:23;3.60;;;1.73;;
22359;SDS011;11347;52.030;4.690;2022-08-23T04:09:50;8.10;;;2.20;;
22359;SDS011;11347;52.030;4.690;2022-08-23T04:12:15;4.60;;;2.30;;
22359;SDS011;11347;52.030;4.690;2022-08-23T04:14:41;5.83;;;2.30;;
22359;SDS011;11347;52.030;4.690;2022-08-23T04:17:07;3.23;;;1.90;;
22359;SDS011;11347;52.030;4.690;2022-08-23T04:19:32;5.27;;;2.07;;
22359;SDS011;11347;52.030;4.690;2022-08-23T04:21:58;6.07;;;2.40;;
22359;SDS011;11347;52.030;4.690;2022-08-23T04:24:23;4.70;;;2.00;;
22359;SDS011;11347;52.030;4.690;2022-08-23T04:26:49;4.23;;;2.37;;
22359;SDS011;11347;52.030;4.690;2022-08-23T04:29:15;5.13;;;2.33;;
22359;SDS011;11347;52.030;4.690;2022-08-23T04:31:44;4.37;;;2.10;;
22359;SDS011;11347;52.030;4.690;2022-08-23T04:34:10;4.83;;;2.10;;
22359;SDS011;11347;52.030;4.690;2022-08-23T04:36:37;3.27;;;1.87;;
22359;SDS011;11347;52.030;4.690;2022-08-23T04:39:04;3.50;;;1.77;;
22359;SDS011;11347;52.030;4.690;2022-08-23T04:41:30;5.07;;;2.40;;
22359;SDS011;11347;52.030;4.690;2022-08-23T04:44:15;4.97;;;1.87;;
22359;SDS011;11347;52.030;4.690;2022-08-23T04:46:41;5.27;;;2.27;;
22359;SDS011;11347;52.030;4.690;2022-08-23T04:49:11;4.07;;;2.03;;
22359;SDS011;11347;52.030;4.690;2022-08-23T04:51:36;4.97;;;2.10;;
22359;SDS011;11347;52.030;4.690;2022-08-23T04:54:02;5.07;;;2.10;;
22359;SDS011;11347;52.030;4.690;2022-08-23T04:56:28;7.03;;;2.40;;
22359;SDS011;11347;52.030;4.690;2022-08-23T04:58:55;4.97;;;2.00;;
22359;SDS011;11347;52.030;4.690;2022-08-23T05:01:21;6.03;;;2.37;;
22359;SDS011;11347;52.030;4.690;2022-08-23T05:03:49;5.80;;;2.40;;
22359;SDS011;11347;52.030;4.690;2022-08-23T05:06:15;5.93;;;2.10;;
22359;SDS011;11347;52.030;4.690;2022-08-23T05:08:41;4.60;;;2.30;;
22359;SDS011;11347;52.030;4.690;2022-08-23T05:11:06;4.43;;;2.30;;
22359;SDS011;11347;52.030;4.690;2022-08-23T05:13:33;5.03;;;2.43;;
22359;SDS011;11347;52.030;4.690;2022-08-23T05:15:59;4.93;;;2.10;;
22359;SDS011;11347;52.030;4.690;2022-08-23T05:18:25;6.93;;;2.50;;
22359;SDS011;11347;52.030;4.690;2022-08-23T05:20:51;5.07;;;2.40;;
22359;SDS011;11347;52.030;4.690;2022-08-23T05:23:17;4.43;;;2.20;;
22359;SDS011;11347;52.030;4.690;2022-08-23T05:25:43;3.80;;;2.30;;
22359;SDS011;11347;52.030;4.690;2022-08-23T05:28:19;3.67;;;2.10;;
22359;SDS011;11347;52.030;4.690;2022-08-23T05:31:20;4.73;;;2.00;;
22359;SDS011;11347;52.030;4.690;2022-08-23T05:33:40;3.43;;;2.00;;
22359;SDS011;11347;52.030;4.690;2022-08-23T05:36:07;4.80;;;2.20;;
22359;SDS011;11347;52.030;4.690;2022-08-23T05:38:34;3.27;;;1.90;;
22359;SDS011;11347;52.030;4.690;2022-08-23T05:40:59;4.80;;;2.20;;
22359;SDS011;11347;52.030;4.690;2022-08-23T05:43:28;4.43;;;1.93;;
22359;SDS011;11347;52.030;4.690;2022-08-23T05:46:02;4.20;;;2.40;;
22359;SDS011;11347;52.030;4.690;2022-08-23T05:48:39;3.73;;;2.13;;
22359;SDS011;11347;52.030;4.690;2022-08-23T05:51:29;5.37;;;2.20;;
22359;SDS011;11347;52.030;4.690;2022-08-23T05:53:55;5.87;;;2.33;;
22359;SDS011;11347;52.030;4.690;2022-08-23T05:56:26;5.53;;;2.47;;
22359;SDS011;11347;52.030;4.690;2022-08-23T05:58:58;6.43;;;2.80;;
22359;SDS011;11347;52.030;4.690;2022-08-23T06:01:26;5.87;;;2.87;;
22359;SDS011;11347;52.030;4.690;2022-08-23T06:03:53;4.37;;;2.40;;
22359;SDS011;11347;52.030;4.690;2022-08-23T06:06:19;5.67;;;2.40;;
22359;SDS011;11347;52.030;4.690;2022-08-23T06:08:46;4.80;;;2.30;;
22359;SDS011;11347;52.030;4.690;2022-08-23T06:11:17;4.33;;;2.27;;
22359;SDS011;11347;52.030;4.690;2022-08-23T06:13:46;6.13;;;2.63;;
22359;SDS011;11347;52.030;4.690;2022-08-23T06:16:14;6.33;;;2.70;;
22359;SDS011;11347;52.030;4.690;2022-08-23T06:18:42;5.50;;;2.33;;
22359;SDS011;11347;52.030;4.690;2022-08-23T06:21:09;4.87;;;2.23;;
22359;SDS011;11347;52.030;4.690;2022-08-23T06:23:36;7.27;;;2.80;;
22359;SDS011;11347;52.030;4.690;2022-08-23T06:26:09;5.50;;;2.60;;
22359;SDS011;11347;52.030;4.690;2022-08-23T06:28:40;6.07;;;2.97;;
22359;SDS011;11347;52.030;4.690;2022-08-23T06:31:07;3.83;;;2.10;;
22359;SDS011;11347;52.030;4.690;2022-08-23T06:33:33;6.63;;;2.80;;
22359;SDS011;11347;52.030;4.690;2022-08-23T06:38:30;5.50;;;2.40;;
22359;SDS011;11347;52.030;4.690;2022-08-23T06:41:00;5.90;;;2.90;;
22359;SDS011;11347;52.030;4.690;2022-08-23T06:43:27;6.10;;;2.60;;
22359;SDS011;11347;52.030;4.690;2022-08-23T06:45:53;7.07;;;2.63;;
22359;SDS011;11347;52.030;4.690;2022-08-23T06:48:19;6.80;;;2.63;;
22359;SDS011;11347;52.030;4.690;2022-08-23T06:50:45;8.73;;;2.50;;
22359;SDS011;11347;52.030;4.690;2022-08-23T06:53:10;7.93;;;2.70;;
22359;SDS011;11347;52.030;4.690;2022-08-23T06:55:36;8.53;;;3.17;;
22359;SDS011;11347;52.030;4.690;2022-08-23T06:58:02;9.43;;;2.70;;
22359;SDS011;11347;52.030;4.690;2022-08-23T07:00:28;6.43;;;2.90;;
22359;SDS011;11347;52.030;4.690;2022-08-23T07:02:54;6.37;;;2.70;;
22359;SDS011;11347;52.030;4.690;2022-08-23T07:05:19;7.60;;;2.73;;
22359;SDS011;11347;52.030;4.690;2022-08-23T07:07:45;6.40;;;2.70;;
22359;SDS011;11347;52.030;4.690;2022-08-23T07:10:11;7.17;;;2.73;;
22359;SDS011;11347;52.030;4.690;2022-08-23T07:12:38;6.87;;;2.43;;
22359;SDS011;11347;52.030;4.690;2022-08-23T07:15:06;11.40;;;2.90;;
22359;SDS011;11347;52.030;4.690;2022-08-23T07:17:32;6.53;;;2.57;;
22359;SDS011;11347;52.030;4.690;2022-08-23T07:19:58;5.73;;;2.90;;
22359;SDS011;11347;52.030;4.690;2022-08-23T07:22:23;5.97;;;2.60;;
22359;SDS011;11347;52.030;4.690;2022-08-23T07:24:49;4.30;;;2.37;;
22359;SDS011;11347;52.030;4.690;2022-08-23T07:27:15;9.20;;;2.80;;
22359;SDS011;11347;52.030;4.690;2022-08-23T07:29:40;5.10;;;2.33;;
22359;SDS011;11347;52.030;4.690;2022-08-23T07:32:06;8.47;;;2.67;;
22359;SDS011;11347;52.030;4.690;2022-08-23T07:34:33;8.10;;;2.50;;
22359;SDS011;11347;52.030;4.690;2022-08-23T07:36:58;6.73;;;2.10;;
22359;SDS011;11347;52.030;4.690;2022-08-23T07:39:25;4.57;;;2.20;;
22359;SDS011;11347;52.030;4.690;2022-08-23T07:41:51;4.20;;;2.20;;
22359;SDS011;11347;52.030;4.690;2022-08-23T07:44:17;7.93;;;2.37;;
22359;SDS011;11347;52.030;4.690;2022-08-23T07:46:42;6.83;;;2.60;;
22359;SDS011;11347;52.030;4.690;2022-08-23T07:49:09;5.83;;;2.43;;
22359;SDS011;11347;52.030;4.690;2022-08-23T07:51:36;7.67;;;2.70;;
22359;SDS011;11347;52.030;4.690;2022-08-23T07:54:03;7.03;;;3.23;;
22359;SDS011;11347;52.030;4.690;2022-08-23T07:56:31;7.63;;;2.73;;
22359;SDS011;11347;52.030;4.690;2022-08-23T07:58:56;5.87;;;2.40;;
22359;SDS011;11347;52.030;4.690;2022-08-23T08:01:24;5.33;;;2.40;;
22359;SDS011;11347;52.030;4.690;2022-08-23T08:03:52;4.80;;;2.20;;
22359;SDS011;11347;52.030;4.690;2022-08-23T08:06:20;6.07;;;2.30;;
22359;SDS011;11347;52.030;4.690;2022-08-23T08:08:49;8.57;;;3.47;;
22359;SDS011;11347;52.030;4.690;2022-08-23T08:11:16;10.43;;;4.03;;
22359;SDS011;11347;52.030;4.690;2022-08-23T08:13:44;10.07;;;4.53;;
22359;SDS011;11347;52.030;4.690;2022-08-23T08:16:28;7.17;;;3.93;;
22359;SDS011;11347;52.030;4.690;2022-08-23T08:18:57;9.30;;;4.10;;
22359;SDS011;11347;52.030;4.690;2022-08-23T08:21:23;8.60;;;3.33;;
22359;SDS011;11347;52.030;4.690;2022-08-23T08:23:51;8.57;;;3.00;;
22359;SDS011;11347;52.030;4.690;2022-08-23T08:26:16;7.77;;;2.73;;
22359;SDS011;11347;52.030;4.690;2022-08-23T08:28:43;6.87;;;2.87;;
22359;SDS011;11347;52.030;4.690;2022-08-23T08:31:09;8.37;;;2.47;;
22359;SDS011;11347;52.030;4.690;2022-08-23T08:33:35;7.87;;;2.17;;
22359;SDS011;11347;52.030;4.690;2022-08-23T08:36:01;5.27;;;1.90;;
22359;SDS011;11347;52.030;4.690;2022-08-23T08:38:27;6.70;;;1.80;;
22359;SDS011;11347;52.030;4.690;2022-08-23T08:40:58;5.57;;;1.93;;
22359;SDS011;11347;52.030;4.690;2022-08-23T08:43:45;5.53;;;1.80;;
22359;SDS011;11347;52.030;4.690;2022-08-23T08:46:23;3.20;;;1.57;;
22359;SDS011;11347;52.030;4.690;2022-08-23T08:49:01;5.20;;;2.13;;
22359;SDS011;11347;52.030;4.690;2022-08-23T08:54:20;3.43;;;1.67;;
22359;SDS011;11347;52.030;4.690;2022-08-23T08:56:51;5.63;;;1.90;;
22359;SDS011;11347;52.030;4.690;2022-08-23T08:59:22;6.03;;;1.70;;
22359;SDS011;11347;52.030;4.690;2022-08-23T09:01:51;6.87;;;1.80;;
22359;SDS011;11347;52.030;4.690;2022-08-23T09:04:17;6.20;;;1.73;;
22359;SDS011;11347;52.030;4.690;2022-08-23T09:07:07;7.90;;;1.80;;
22359;SDS011;11347;52.030;4.690;2022-08-23T09:09:42;6.37;;;1.70;;
22359;SDS011;11347;52.030;4.690;2022-08-23T09:17:50;5.33;;;2.00;;
22359;SDS011;11347;52.030;4.690;2022-08-23T09:20:21;5.53;;;2.27;;
22359;SDS011;11347;52.030;4.690;2022-08-23T09:22:50;5.93;;;2.20;;
22359;SDS011;11347;52.030;4.690;2022-08-23T09:25:25;6.47;;;2.03;;
22359;SDS011;11347;52.030;4.690;2022-08-23T09:27:50;4.20;;;1.70;;
22359;SDS011;11347;52.030;4.690;2022-08-23T09:30:18;4.57;;;1.87;;
22359;SDS011;11347;52.030;4.690;2022-08-23T09:32:44;3.40;;;1.70;;
22359;SDS011;11347;52.030;4.690;2022-08-23T09:35:18;5.93;;;2.00;;
22359;SDS011;11347;52.030;4.690;2022-08-23T09:37:50;5.93;;;2.00;;
22359;SDS011;11347;52.030;4.690;2022-08-23T09:40:34;4.27;;;1.60;;
22359;SDS011;11347;52.030;4.690;2022-08-23T09:43:12;8.67;;;1.90;;
22359;SDS011;11347;52.030;4.690;2022-08-23T09:45:51;2.70;;;1.60;;
22359;SDS011;11347;52.030;4.690;2022-08-23T09:48:32;4.77;;;1.90;;
22359;SDS011;11347;52.030;4.690;2022-08-23T09:51:11;5.97;;;1.63;;
22359;SDS011;11347;52.030;4.690;2022-08-23T09:53:49;5.53;;;1.70;;
22359;SDS011;11347;52.030;4.690;2022-08-23T09:56:26;4.13;;;1.60;;
22359;SDS011;11347;52.030;4.690;2022-08-23T09:58:52;5.90;;;1.67;;
22359;SDS011;11347;52.030;4.690;2022-08-23T10:01:22;7.50;;;2.10;;
22359;SDS011;11347;52.030;4.690;2022-08-23T10:06:42;6.10;;;1.60;;
22359;SDS011;11347;52.030;4.690;2022-08-23T10:09:20;6.27;;;1.80;;
22359;SDS011;11347;52.030;4.690;2022-08-23T10:11:48;4.70;;;1.60;;
22359;SDS011;11347;52.030;4.690;2022-08-23T10:14:15;9.50;;;1.90;;
22359;SDS011;11347;52.030;4.690;2022-08-23T10:25:05;6.77;;;1.80;;
22359;SDS011;11347;52.030;4.690;2022-08-23T10:31:13;6.10;;;1.67;;
22359;SDS011;11347;52.030;4.690;2022-08-23T10:39:31;6.17;;;1.73;;
22359;SDS011;11347;52.030;4.690;2022-08-23T10:42:03;4.93;;;1.80;;
22359;SDS011;11347;52.030;4.690;2022-08-23T10:45:06;8.00;;;1.80;;
22359;SDS011;11347;52.030;4.690;2022-08-23T10:48:22;8.20;;;2.07;;
22359;SDS011;11347;52.030;4.690;2022-08-23T10:51:17;8.57;;;2.00;;
22359;SDS011;11347;52.030;4.690;2022-08-23T10:54:08;5.33;;;1.43;;
22359;SDS011;11347;52.030;4.690;2022-08-23T10:56:23;5.13;;;1.53;;
22359;SDS011;11347;52.030;4.690;2022-08-23T11:01:21;3.90;;;1.50;;
22359;SDS011;11347;52.030;4.690;2022-08-23T11:04:01;3.23;;;1.30;;
22359;SDS011;11347;52.030;4.690;2022-08-23T11:14:07;16.07;;;2.17;;
22359;SDS011;11347;52.030;4.690;2022-08-23T11:16:53;8.53;;;2.10;;
22359;SDS011;11347;52.030;4.690;2022-08-23T11:22:21;8.93;;;2.13;;
22359;SDS011;11347;52.030;4.690;2022-08-23T11:27:34;13.20;;;1.77;;
22359;SDS011;11347;52.030;4.690;2022-08-23T11:32:58;6.20;;;1.67;;
22359;SDS011;11347;52.030;4.690;2022-08-23T11:35:43;4.80;;;1.70;;
22359;SDS011;11347;52.030;4.690;2022-08-23T11:38:13;6.67;;;2.00;;
22359;SDS011;11347;52.030;4.690;2022-08-23T11:43:08;8.73;;;1.80;;
22359;SDS011;11347;52.030;4.690;2022-08-23T11:45:46;7.53;;;2.30;;
22359;SDS011;11347;52.030;4.690;2022-08-23T11:51:11;5.53;;;1.47;;
22359;SDS011;11347;52.030;4.690;2022-08-23T11:54:05;3.73;;;1.30;;
22359;SDS011;11347;52.030;4.690;2022-08-23T11:59:51;4.10;;;1.40;;
22359;SDS011;11347;52.030;4.690;2022-08-23T12:05:08;3.33;;;1.37;;
22359;SDS011;11347;52.030;4.690;2022-08-23T12:10:23;4.50;;;1.30;;
22359;SDS011;11347;52.030;4.690;2022-08-23T12:18:37;5.43;;;1.20;;
22359;SDS011;11347;52.030;4.690;2022-08-23T12:21:04;3.03;;;1.20;;
22359;SDS011;11347;52.030;4.690;2022-08-23T12:23:44;3.20;;;1.37;;
22359;SDS011;11347;52.030;4.690;2022-08-23T12:29:16;3.93;;;1.20;;
22359;SDS011;11347;52.030;4.690;2022-08-23T12:38:02;6.67;;;1.53;;
22359;SDS011;11347;52.030;4.690;2022-08-23T12:40:54;4.83;;;1.50;;
22359;SDS011;11347;52.030;4.690;2022-08-23T12:43:24;3.93;;;1.47;;
22359;SDS011;11347;52.030;4.690;2022-08-23T12:45:55;3.53;;;1.33;;
22359;SDS011;11347;52.030;4.690;2022-08-23T12:48:25;4.97;;;1.70;;
22359;SDS011;11347;52.030;4.690;2022-08-23T12:50:58;3.07;;;1.30;;
22359;SDS011;11347;52.030;4.690;2022-08-23T12:53:31;5.67;;;1.60;;
22359;SDS011;11347;52.030;4.690;2022-08-23T12:58:58;1.73;;;1.30;;
22359;SDS011;11347;52.030;4.690;2022-08-23T13:01:34;4.83;;;2.00;;
22359;SDS011;11347;52.030;4.690;2022-08-23T13:04:05;3.30;;;1.40;;
22359;SDS011;11347;52.030;4.690;2022-08-23T13:06:42;4.27;;;1.60;;
22359;SDS011;11347;52.030;4.690;2022-08-23T13:09:21;2.87;;;1.50;;
22359;SDS011;11347;52.030;4.690;2022-08-23T13:11:51;4.70;;;1.40;;
22359;SDS011;11347;52.030;4.690;2022-08-23T13:14:35;4.13;;;1.57;;
22359;SDS011;11347;52.030;4.690;2022-08-23T13:19:45;3.20;;;1.50;;
22359;SDS011;11347;52.030;4.690;2022-08-23T13:24:44;5.50;;;1.70;;
22359;SDS011;11347;52.030;4.690;2022-08-23T13:27:26;4.50;;;1.73;;
22359;SDS011;11347;52.030;4.690;2022-08-23T13:29:55;4.13;;;1.50;;
22359;SDS011;11347;52.030;4.690;2022-08-23T13:32:28;4.20;;;1.40;;
22359;SDS011;11347;52.030;4.690;2022-08-23T13:37:47;6.37;;;1.63;;
22359;SDS011;11347;52.030;4.690;2022-08-23T13:40:18;3.60;;;1.50;;
22359;SDS011;11347;52.030;4.690;2022-08-23T13:42:58;4.90;;;1.67;;
22359;SDS011;11347;52.030;4.690;2022-08-23T13:45:30;4.50;;;1.60;;
22359;SDS011;11347;52.030;4.690;2022-08-23T13:48:15;2.87;;;1.40;;
22359;SDS011;11347;52.030;4.690;2022-08-23T13:50:44;3.70;;;1.50;;
22359;SDS011;11347;52.030;4.690;2022-08-23T13:53:11;3.30;;;1.50;;
22359;SDS011;11347;52.030;4.690;2022-08-23T13:55:41;3.10;;;1.40;;
22359;SDS011;11347;52.030;4.690;2022-08-23T13:58:13;3.37;;;1.37;;
22359;SDS011;11347;52.030;4.690;2022-08-23T14:00:57;4.10;;;1.40;;
22359;SDS011;11347;52.030;4.690;2022-08-23T14:03:24;1.97;;;1.30;;
22359;SDS011;11347;52.030;4.690;2022-08-23T14:05:51;3.33;;;1.30;;
22359;SDS011;11347;52.030;4.690;2022-08-23T14:08:17;3.80;;;1.30;;
22359;SDS011;11347;52.030;4.690;2022-08-23T14:10:43;3.63;;;1.33;;
22359;SDS011;11347;52.030;4.690;2022-08-23T14:13:13;5.07;;;1.43;;
22359;SDS011;11347;52.030;4.690;2022-08-23T14:15:40;3.60;;;1.53;;
22359;SDS011;11347;52.030;4.690;2022-08-23T14:18:07;3.80;;;1.47;;
22359;SDS011;11347;52.030;4.690;2022-08-23T14:20:35;4.13;;;1.50;;
22359;SDS011;11347;52.030;4.690;2022-08-23T14:23:01;4.20;;;1.70;;
22359;SDS011;11347;52.030;4.690;2022-08-23T14:25:27;3.73;;;1.53;;
22359;SDS011;11347;52.030;4.690;2022-08-23T14:27:52;4.30;;;1.80;;
22359;SDS011;11347;52.030;4.690;2022-08-23T14:30:26;7.10;;;1.83;;
22359;SDS011;11347;52.030;4.690;2022-08-23T14:32:54;7.33;;;2.13;;
22359;SDS011;11347;52.030;4.690;2022-08-23T14:35:20;7.83;;;1.87;;
22359;SDS011;11347;52.030;4.690;2022-08-23T14:37:46;3.27;;;1.80;;
22359;SDS011;11347;52.030;4.690;2022-08-23T14:40:12;4.97;;;1.63;;
22359;SDS011;11347;52.030;4.690;2022-08-23T14:42:39;4.50;;;1.70;;
22359;SDS011;11347;52.030;4.690;2022-08-23T14:45:05;5.67;;;1.57;;
22359;SDS011;11347;52.030;4.690;2022-08-23T14:47:32;3.33;;;1.70;;
22359;SDS011;11347;52.030;4.690;2022-08-23T14:49:59;5.13;;;1.70;;
22359;SDS011;11347;52.030;4.690;2022-08-23T14:52:25;4.93;;;1.70;;
22359;SDS011;11347;52.030;4.690;2022-08-23T14:54:51;3.50;;;1.57;;
22359;SDS011;11347;52.030;4.690;2022-08-23T14:57:17;5.10;;;1.53;;
22359;SDS011;11347;52.030;4.690;2022-08-23T14:59:42;2.37;;;1.40;;
22359;SDS011;11347;52.030;4.690;2022-08-23T15:02:08;4.77;;;1.57;;
22359;SDS011;11347;52.030;4.690;2022-08-23T15:04:37;4.07;;;1.40;;
22359;SDS011;11347;52.030;4.690;2022-08-23T15:07:03;5.07;;;1.50;;
22359;SDS011;11347;52.030;4.690;2022-08-23T15:09:29;3.00;;;1.40;;
22359;SDS011;11347;52.030;4.690;2022-08-23T15:11:54;4.60;;;1.60;;
22359;SDS011;11347;52.030;4.690;2022-08-23T15:14:20;3.03;;;1.40;;
22359;SDS011;11347;52.030;4.690;2022-08-23T15:16:46;6.67;;;1.70;;
22359;SDS011;11347;52.030;4.690;2022-08-23T15:19:12;3.80;;;1.53;;
22359;SDS011;11347;52.030;4.690;2022-08-23T15:21:37;5.87;;;1.50;;
22359;SDS011;11347;52.030;4.690;2022-08-23T15:24:03;3.80;;;1.53;;
22359;SDS011;11347;52.030;4.690;2022-08-23T15:26:29;3.10;;;1.60;;
22359;SDS011;11347;52.030;4.690;2022-08-23T15:28:56;2.33;;;1.20;;
22359;SDS011;11347;52.030;4.690;2022-08-23T15:31:23;3.70;;;1.30;;
22359;SDS011;11347;52.030;4.690;2022-08-23T15:33:48;3.93;;;1.83;;
22359;SDS011;11347;52.030;4.690;2022-08-23T15:36:14;6.23;;;2.07;;
22359;SDS011;11347;52.030;4.690;2022-08-23T15:38:41;22.13;;;5.27;;
22359;SDS011;11347;52.030;4.690;2022-08-23T15:41:09;23.40;;;5.47;;
22359;SDS011;11347;52.030;4.690;2022-08-23T15:43:35;12.83;;;3.70;;
22359;SDS011;11347;52.030;4.690;2022-08-23T15:46:06;11.33;;;3.60;;
22359;SDS011;11347;52.030;4.690;2022-08-23T15:48:35;10.73;;;2.93;;
22359;SDS011;11347;52.030;4.690;2022-08-23T15:51:09;11.53;;;3.10;;
22359;SDS011;11347;52.030;4.690;2022-08-23T15:53:36;14.03;;;3.83;;
22359;SDS011;11347;52.030;4.690;2022-08-23T15:56:06;11.47;;;3.00;;
22359;SDS011;11347;52.030;4.690;2022-08-23T15:58:35;7.90;;;2.40;;
22359;SDS011;11347;52.030;4.690;2022-08-23T16:01:01;4.90;;;2.23;;
22359;SDS011;11347;52.030;4.690;2022-08-23T16:03:26;5.90;;;2.10;;
22359;SDS011;11347;52.030;4.690;2022-08-23T16:05:52;6.50;;;2.40;;
22359;SDS011;11347;52.030;4.690;2022-08-23T16:08:20;8.40;;;2.70;;
22359;SDS011;11347;52.030;4.690;2022-08-23T16:10:49;8.13;;;2.73;;
22359;SDS011;11347;52.030;4.690;2022-08-23T16:13:15;7.17;;;2.20;;
22359;SDS011;11347;52.030;4.690;2022-08-23T16:15:41;4.40;;;2.10;;
22359;SDS011;11347;52.030;4.690;2022-08-23T16:18:07;3.77;;;2.07;;
22359;SDS011;11347;52.030;4.690;2022-08-23T16:20:32;4.10;;;2.10;;
22359;SDS011;11347;52.030;4.690;2022-08-23T16:22:58;4.87;;;2.30;;
22359;SDS011;11347;52.030;4.690;2022-08-23T16:25:23;6.23;;;2.50;;
22359;SDS011;11347;52.030;4.690;2022-08-23T16:27:49;5.23;;;2.27;;
22359;SDS011;11347;52.030;4.690;2022-08-23T16:30:15;4.87;;;2.40;;
22359;SDS011;11347;52.030;4.690;2022-08-23T16:32:41;4.73;;;2.10;;
22359;SDS011;11347;52.030;4.690;2022-08-23T16:35:07;6.67;;;1.90;;